Time;durP1;ratioP1;P1;durP2;ratioP2;P2;SDS_P1;SDS_P2;PMS_P1;PMS_P2;Temp;Humidity;BMP_temperature;BMP_pressure;BME280_temperature;BME280_humidity;BME280_pressure;Samples;Min_cycle;Max_cycle;Signal;HPM_P1;HPM_P2
2022/11/30 00:00:26;;;;;;;;;;;19.00;71.90;;;;;;4446247;32;20422;-77
2022/11/30 00:02:54;;;;;;;;;;;19.00;71.80;;;;;;4446592;32;19970;-78
2022/11/30 00:05:21;;;;;;;;;;;19.00;71.80;;;;;;4432629;32;20336;-78
2022/11/30 00:07:47;;;;;;;;;;;19.00;71.70;;;;;;4446094;32;20010;-78
2022/11/30 00:10:13;;;;;;;;;;;19.00;71.80;;;;;;4446134;32;20034;-78
2022/11/30 00:12:41;;;;;;;;;;;19.00;71.70;;;;;;4446063;32;20092;-78
2022/11/30 00:15:13;;;;;;;;;;;19.00;71.70;;;;;;4445949;32;19990;-78
2022/11/30 00:17:39;;;;;;;;;;;18.90;71.60;;;;;;4446305;32;19994;-78
2022/11/30 00:20:05;;;;;;;;;;;18.90;71.60;;;;;;4446001;32;20388;-78
2022/11/30 00:22:31;;;;;;;;;;;18.90;71.60;;;;;;4446124;32;20034;-78
2022/11/30 00:24:59;;;;;;;;;;;18.90;71.60;;;;;;4445942;32;19998;-78
2022/11/30 00:27:28;;;;;;;;;;;18.90;71.50;;;;;;4445704;32;19985;-78
2022/11/30 00:29:54;;;;;;;;;;;18.90;71.50;;;;;;4446229;32;20491;-78
2022/11/30 00:32:20;;;;;;;;;;;18.90;71.50;;;;;;4446014;32;19976;-78
2022/11/30 00:34:45;;;;;;;;;;;18.90;71.50;;;;;;4445718;32;20385;-78
2022/11/30 00:37:11;;;;;;;;;;;18.90;71.40;;;;;;4445808;32;20001;-78
2022/11/30 00:39:37;;;;;;;;;;;18.90;71.40;;;;;;4445580;32;20003;-78
2022/11/30 00:42:02;;;;;;;;;;;18.80;71.40;;;;;;4445849;32;19971;-78
2022/11/30 00:44:28;;;;;;;;;;;18.90;71.50;;;;;;4446095;32;19974;-78
2022/11/30 00:46:53;;;;;;;;;;;18.80;71.40;;;;;;4445770;32;19975;-78
2022/11/30 00:49:19;;;;;;;;;;;18.80;71.40;;;;;;4445793;32;19959;-78
2022/11/30 00:51:45;;;;;;;;;;;18.80;71.40;;;;;;4445887;32;19977;-78
2022/11/30 00:54:10;;;;;;;;;;;18.80;71.40;;;;;;4445832;32;20152;-78
2022/11/30 00:56:36;;;;;;;;;;;18.80;71.40;;;;;;4444603;32;20372;-78
2022/11/30 00:59:02;;;;;;;;;;;18.80;71.40;;;;;;4445748;32;20301;-78
2022/11/30 01:01:30;;;;;;;;;;;18.80;71.40;;;;;;4445472;32;19986;-78
2022/11/30 01:03:56;;;;;;;;;;;18.70;71.40;;;;;;4445424;32;19982;-78
2022/11/30 01:06:21;;;;;;;;;;;18.70;71.40;;;;;;4445407;32;19977;-78
2022/11/30 01:08:47;;;;;;;;;;;18.70;71.40;;;;;;4448068;32;20534;-78
2022/11/30 01:11:18;;;;;;;;;;;18.70;71.30;;;;;;4434783;32;19959;-78
2022/11/30 01:13:44;;;;;;;;;;;18.70;71.40;;;;;;4448471;32;19970;-78
2022/11/30 01:16:12;;;;;;;;;;;18.70;71.40;;;;;;4448484;32;19977;-78
2022/11/30 01:18:38;;;;;;;;;;;18.70;71.40;;;;;;4448565;32;20017;-78
2022/11/30 01:21:12;;;;;;;;;;;18.70;72.20;;;;;;4448367;32;19991;-78
2022/11/30 01:23:38;;;;;;;;;;;18.70;71.40;;;;;;4448505;32;20068;-78
2022/11/30 01:26:04;;;;;;;;;;;18.70;71.40;;;;;;4448733;32;20088;-78
2022/11/30 01:28:29;;;;;;;;;;;18.70;71.40;;;;;;4448308;32;19982;-78
2022/11/30 01:31:03;;;;;;;;;;;18.60;71.30;;;;;;4448674;32;19967;-78
2022/11/30 01:33:29;;;;;;;;;;;18.60;71.30;;;;;;4448285;32;20498;-78
2022/11/30 01:36:01;;;;;;;;;;;18.60;71.30;;;;;;4448242;32;20018;-78
2022/11/30 01:38:30;;;;;;;;;;;18.60;71.30;;;;;;4448448;32;20070;-78
2022/11/30 01:40:55;;;;;;;;;;;18.60;71.30;;;;;;4434429;32;19979;-78
2022/11/30 01:43:35;;;;;;;;;;;18.60;71.30;;;;;;4448303;32;20392;-78
2022/11/30 01:46:01;;;;;;;;;;;18.60;71.40;;;;;;4448451;32;19990;-78
2022/11/30 01:48:27;;;;;;;;;;;18.60;71.40;;;;;;4448378;32;20314;-78
2022/11/30 01:50:53;;;;;;;;;;;18.60;71.40;;;;;;4448100;32;19993;-78
2022/11/30 01:53:18;;;;;;;;;;;18.60;71.40;;;;;;4447958;32;20336;-78
2022/11/30 01:55:45;;;;;;;;;;;18.60;71.40;;;;;;4448094;32;20277;-78
2022/11/30 01:58:10;;;;;;;;;;;18.60;71.40;;;;;;4447978;32;20100;-78
2022/11/30 02:00:37;;;;;;;;;;;18.50;71.40;;;;;;4447966;32;19971;-78
2022/11/30 02:03:10;;;;;;;;;;;18.60;71.40;;;;;;4448345;32;19978;-78
2022/11/30 02:05:37;;;;;;;;;;;18.60;71.30;;;;;;4447933;32;19975;-78
2022/11/30 02:08:03;;;;;;;;;;;18.50;71.30;;;;;;4447859;32;19975;-78
2022/11/30 02:10:30;;;;;;;;;;;18.50;71.30;;;;;;4447818;32;20022;-78
2022/11/30 02:12:56;;;;;;;;;;;18.50;71.30;;;;;;4447796;32;19986;-78
2022/11/30 02:15:25;;;;;;;;;;;18.50;71.30;;;;;;4447913;32;19958;-78
2022/11/30 02:18:04;;;;;;;;;;;18.50;71.20;;;;;;4447797;32;20385;-78
2022/11/30 02:20:48;;;;;;;;;;;18.50;71.30;;;;;;4447078;32;19978;-78
2022/11/30 02:23:14;;;;;;;;;;;18.50;71.30;;;;;;4447950;32;19991;-78
2022/11/30 02:25:46;;;;;;;;;;;18.50;71.30;;;;;;4447668;32;20391;-78
2022/11/30 02:28:20;;;;;;;;;;;18.50;71.30;;;;;;4447644;32;20072;-78
2022/11/30 02:30:47;;;;;;;;;;;18.50;71.30;;;;;;4447423;32;20109;-78
2022/11/30 02:33:18;;;;;;;;;;;18.50;71.30;;;;;;4447890;32;20065;-78
2022/11/30 02:35:45;;;;;;;;;;;18.50;71.30;;;;;;4447411;32;19985;-78
2022/11/30 02:38:11;;;;;;;;;;;18.50;71.30;;;;;;4447467;32;19993;-78
2022/11/30 02:40:37;;;;;;;;;;;18.50;71.30;;;;;;4447177;32;20018;-78
2022/11/30 02:43:04;;;;;;;;;;;18.40;71.20;;;;;;4433453;32;20289;-78
2022/11/30 02:45:37;;;;;;;;;;;18.40;71.20;;;;;;4447341;32;19990;-78
2022/11/30 02:48:05;;;;;;;;;;;18.40;71.20;;;;;;4447305;32;19989;-78
2022/11/30 02:50:37;;;;;;;;;;;18.40;71.20;;;;;;4447264;32;20100;-78
2022/11/30 02:53:03;;;;;;;;;;;18.40;71.20;;;;;;4447007;32;20076;-78
2022/11/30 02:55:30;;;;;;;;;;;18.40;71.20;;;;;;4447130;32;20436;-78
2022/11/30 02:57:56;;;;;;;;;;;18.40;71.20;;;;;;4447431;32;19993;-77
2022/11/30 03:00:22;;;;;;;;;;;18.40;71.20;;;;;;4446809;32;20331;-77
2022/11/30 03:02:47;;;;;;;;;;;18.40;71.20;;;;;;4447415;32;20008;-78
2022/11/30 03:05:14;;;;;;;;;;;18.40;71.10;;;;;;4447147;32;19997;-78
2022/11/30 03:07:39;;;;;;;;;;;18.40;72.00;;;;;;4446921;32;19970;-78
2022/11/30 03:10:05;;;;;;;;;;;18.40;71.20;;;;;;4433012;32;20092;-78
2022/11/30 03:12:31;;;;;;;;;;;18.40;71.10;;;;;;4446951;32;20100;-78
2022/11/30 03:14:57;;;;;;;;;;;18.40;71.20;;;;;;4446989;32;20386;-78
2022/11/30 03:17:22;;;;;;;;;;;18.40;71.20;;;;;;4446504;32;20426;-78
2022/11/30 03:19:48;;;;;;;;;;;18.40;71.20;;;;;;4446570;32;20316;-78
2022/11/30 03:22:14;;;;;;;;;;;18.40;71.20;;;;;;4446229;32;19978;-78
2022/11/30 03:24:39;;;;;;;;;;;18.30;71.10;;;;;;4446752;32;20296;-78
2022/11/30 03:27:05;;;;;;;;;;;18.30;71.10;;;;;;4446747;32;20085;-78
2022/11/30 03:29:31;;;;;;;;;;;18.30;71.00;;;;;;4446348;32;19981;-78
2022/11/30 03:31:56;;;;;;;;;;;18.30;71.10;;;;;;4446384;32;19971;-78
2022/11/30 03:34:25;;;;;;;;;;;18.30;71.10;;;;;;4446173;32;20049;-78
2022/11/30 03:36:50;;;;;;;;;;;18.30;71.10;;;;;;4446357;32;20552;-78
2022/11/30 03:39:16;;;;;;;;;;;18.30;71.10;;;;;;4446262;32;19970;-78
2022/11/30 03:41:42;;;;;;;;;;;18.30;71.10;;;;;;4446240;32;20156;-78
2022/11/30 03:44:07;;;;;;;;;;;18.30;71.10;;;;;;4446182;32;20594;-78
2022/11/30 03:46:33;;;;;;;;;;;18.30;71.10;;;;;;4446414;32;20432;-78
2022/11/30 03:48:59;;;;;;;;;;;18.30;71.10;;;;;;4432235;32;20448;-78
2022/11/30 03:51:24;;;;;;;;;;;18.30;71.00;;;;;;4445816;32;19974;-78
2022/11/30 03:53:50;;;;;;;;;;;18.30;71.10;;;;;;4445986;32;20293;-78
2022/11/30 03:56:16;;;;;;;;;;;18.30;71.00;;;;;;4446289;32;19971;-78
2022/11/30 03:58:42;;;;;;;;;;;18.30;71.00;;;;;;4446374;32;19962;-78
2022/11/30 04:01:09;;;;;;;;;;;18.20;71.00;;;;;;4445988;32;20375;-78
2022/11/30 04:03:35;;;;;;;;;;;18.20;71.00;;;;;;4446138;32;19971;-78
2022/11/30 04:06:02;;;;;;;;;;;18.20;71.00;;;;;;4446026;32;20328;-78
2022/11/30 04:08:28;;;;;;;;;;;18.20;71.00;;;;;;4445986;32;20010;-78
2022/11/30 04:10:55;;;;;;;;;;;18.20;71.00;;;;;;4446408;32;20122;-78
2022/11/30 04:13:21;;;;;;;;;;;18.20;71.00;;;;;;4445934;32;20113;-78
2022/11/30 04:15:47;;;;;;;;;;;18.20;71.00;;;;;;4446102;32;20045;-78
2022/11/30 04:18:13;;;;;;;;;;;18.20;71.10;;;;;;4445859;32;20404;-78
2022/11/30 04:20:39;;;;;;;;;;;18.20;71.00;;;;;;4445799;32;19975;-78
2022/11/30 04:23:05;;;;;;;;;;;18.20;71.00;;;;;;4445928;32;20511;-78
2022/11/30 04:25:30;;;;;;;;;;;18.10;71.00;;;;;;4445816;32;19985;-78
2022/11/30 04:27:56;;;;;;;;;;;18.20;71.00;;;;;;4445763;32;19970;-78
2022/11/30 04:30:22;;;;;;;;;;;18.20;71.00;;;;;;4445739;32;19959;-78
2022/11/30 04:32:47;;;;;;;;;;;18.20;71.00;;;;;;4445737;32;19998;-78
2022/11/30 04:35:13;;;;;;;;;;;18.20;71.00;;;;;;4445646;32;19974;-78
2022/11/30 04:37:38;;;;;;;;;;;18.10;71.00;;;;;;4445950;32;20407;-78
2022/11/30 04:40:05;;;;;;;;;;;18.10;70.90;;;;;;4445849;32;19982;-78
2022/11/30 04:42:31;;;;;;;;;;;18.10;70.90;;;;;;4446489;32;19987;-78
2022/11/30 04:44:56;;;;;;;;;;;18.10;70.90;;;;;;4448728;32;19984;-78
2022/11/30 04:47:22;;;;;;;;;;;18.10;70.90;;;;;;4448693;32;19970;-78
2022/11/30 04:49:48;;;;;;;;;;;18.10;70.90;;;;;;4448633;32;20010;-78
2022/11/30 04:52:14;;;;;;;;;;;18.10;70.90;;;;;;4434575;32;20024;-78
2022/11/30 04:54:39;;;;;;;;;;;18.10;70.90;;;;;;4448557;32;19975;-78
2022/11/30 04:57:05;;;;;;;;;;;18.10;70.90;;;;;;4434829;32;19963;-78
2022/11/30 04:59:31;;;;;;;;;;;18.10;70.90;;;;;;4448213;32;20495;-78
2022/11/30 05:01:57;;;;;;;;;;;18.10;70.90;;;;;;4448456;32;19985;-78
2022/11/30 05:04:22;;;;;;;;;;;18.10;70.80;;;;;;4448686;32;19962;-78
2022/11/30 05:06:49;;;;;;;;;;;18.00;70.80;;;;;;4448086;32;20001;-78
2022/11/30 05:09:14;;;;;;;;;;;18.00;70.80;;;;;;4448098;32;19966;-78
2022/11/30 05:11:40;;;;;;;;;;;18.00;71.70;;;;;;4448317;32;19966;-78
2022/11/30 05:14:06;;;;;;;;;;;18.00;70.80;;;;;;4448309;32;19974;-78
2022/11/30 05:16:31;;;;;;;;;;;18.00;70.80;;;;;;4448468;32;20037;-78
2022/11/30 05:18:57;;;;;;;;;;;18.00;70.80;;;;;;4448375;32;20056;-78
2022/11/30 05:21:23;;;;;;;;;;;18.00;70.80;;;;;;4448307;32;19971;-78
2022/11/30 05:23:48;;;;;;;;;;;18.00;70.80;;;;;;4434495;32;20100;-78
2022/11/30 05:26:14;;;;;;;;;;;18.00;70.80;;;;;;4448179;32;20085;-78
2022/11/30 05:28:40;;;;;;;;;;;18.00;70.80;;;;;;4447988;32;19982;-78
2022/11/30 05:31:06;;;;;;;;;;;18.00;70.70;;;;;;4448053;32;19985;-78
2022/11/30 05:33:32;;;;;;;;;;;18.00;70.70;;;;;;4448016;32;20033;-78
2022/11/30 05:35:57;;;;;;;;;;;18.00;70.80;;;;;;4447934;32;20315;-78
2022/11/30 05:38:24;;;;;;;;;;;18.00;70.80;;;;;;4446684;32;19970;-78
2022/11/30 05:40:49;;;;;;;;;;;17.90;70.70;;;;;;4447907;32;19978;-78
2022/11/30 05:43:15;;;;;;;;;;;17.90;70.80;;;;;;4448049;32;20404;-78
2022/11/30 05:45:41;;;;;;;;;;;17.90;70.70;;;;;;4448241;32;19977;-78
2022/11/30 05:48:07;;;;;;;;;;;17.90;70.70;;;;;;4447694;32;19978;-78
2022/11/30 05:50:32;;;;;;;;;;;17.90;70.70;;;;;;4447919;32;20073;-78
2022/11/30 05:52:59;;;;;;;;;;;17.90;70.70;;;;;;4447537;32;20467;-78
2022/11/30 05:55:26;;;;;;;;;;;17.90;70.70;;;;;;4447976;32;20290;-78
2022/11/30 05:57:52;;;;;;;;;;;17.90;70.70;;;;;;4447825;32;19978;-78
2022/11/30 06:00:18;;;;;;;;;;;17.90;70.60;;;;;;4448031;32;19994;-78
2022/11/30 06:02:44;;;;;;;;;;;17.90;70.70;;;;;;4433933;32;20109;-78
2022/11/30 06:05:10;;;;;;;;;;;17.90;70.60;;;;;;4447768;32;20327;-78
2022/11/30 06:07:36;;;;;;;;;;;17.90;70.60;;;;;;4447425;32;20465;-78
2022/11/30 06:10:02;;;;;;;;;;;17.90;70.60;;;;;;4447384;32;19958;-79
2022/11/30 06:12:28;;;;;;;;;;;17.90;70.60;;;;;;4447600;32;20022;-78
2022/11/30 06:14:54;;;;;;;;;;;17.90;70.50;;;;;;4447569;32;19962;-78
2022/11/30 06:17:20;;;;;;;;;;;17.90;70.50;;;;;;4447557;32;20029;-78
2022/11/30 06:19:45;;;;;;;;;;;17.90;70.50;;;;;;4447455;32;19999;-78
2022/11/30 06:22:11;;;;;;;;;;;17.80;70.50;;;;;;4447248;32;20112;-78
2022/11/30 06:24:37;;;;;;;;;;;17.80;70.50;;;;;;4447432;32;19982;-78
2022/11/30 06:27:02;;;;;;;;;;;17.80;70.50;;;;;;4447152;32;19977;-78
2022/11/30 06:29:28;;;;;;;;;;;17.80;70.40;;;;;;4447165;32;20002;-78
2022/11/30 06:31:54;;;;;;;;;;;17.80;70.50;;;;;;4447348;32;20112;-78
2022/11/30 06:34:20;;;;;;;;;;;17.80;70.40;;;;;;4447268;32;19985;-78
2022/11/30 06:36:45;;;;;;;;;;;17.80;70.40;;;;;;4433272;32;19971;-79
2022/11/30 06:39:11;;;;;;;;;;;17.80;70.40;;;;;;4447441;32;20089;-79
2022/11/30 06:41:37;;;;;;;;;;;17.80;70.40;;;;;;4447237;32;20328;-78
2022/11/30 06:44:06;;;;;;;;;;;17.80;71.30;;;;;;4432992;32;19970;-78
2022/11/30 06:46:32;;;;;;;;;;;17.80;70.40;;;;;;4445781;32;19989;-78
2022/11/30 06:48:59;;;;;;;;;;;17.80;70.40;;;;;;4447015;32;20022;-78
2022/11/30 06:51:24;;;;;;;;;;;17.80;70.40;;;;;;4445945;32;19963;-78
2022/11/30 06:53:50;;;;;;;;;;;17.80;70.40;;;;;;4447164;32;19971;-79
2022/11/30 06:56:16;;;;;;;;;;;17.80;70.40;;;;;;4446680;32;19963;-78
2022/11/30 06:58:41;;;;;;;;;;;17.80;70.40;;;;;;4447134;32;20049;-78
2022/11/30 07:01:08;;;;;;;;;;;17.80;70.40;;;;;;4446682;32;19974;-78
2022/11/30 07:03:34;;;;;;;;;;;17.80;70.40;;;;;;4446991;32;20105;-79
2022/11/30 07:06:04;;;;;;;;;;;17.80;70.40;;;;;;4446385;32;19964;-79
2022/11/30 07:08:31;;;;;;;;;;;17.80;70.40;;;;;;4446876;32;19971;-78
2022/11/30 07:10:58;;;;;;;;;;;17.80;70.30;;;;;;4446533;32;19971;-78
2022/11/30 07:13:24;;;;;;;;;;;17.80;70.40;;;;;;4446417;32;19990;-78
2022/11/30 07:15:49;;;;;;;;;;;17.70;70.30;;;;;;4432900;32;20049;-78
2022/11/30 07:18:15;;;;;;;;;;;17.70;70.30;;;;;;4446381;32;20414;-78
2022/11/30 07:20:41;;;;;;;;;;;17.70;70.20;;;;;;4445611;32;19978;-78
2022/11/30 07:26:08;;;;;;;;;;;17.70;70.30;;;;;;4446896;32;20514;-78
2022/11/30 07:28:38;;;;;;;;;;;17.70;70.20;;;;;;4446575;32;19978;-79
2022/11/30 07:31:23;;;;;;;;;;;17.70;70.20;;;;;;4446634;32;19990;-79
2022/11/30 07:33:49;;;;;;;;;;;17.70;70.20;;;;;;4446728;32;20000;-79
2022/11/30 07:36:16;;;;;;;;;;;17.70;70.20;;;;;;4446484;32;20006;-79
2022/11/30 07:38:42;;;;;;;;;;;17.70;70.20;;;;;;4446338;32;20389;-80
2022/11/30 07:41:08;;;;;;;;;;;17.70;70.20;;;;;;4446301;32;19974;-80
2022/11/30 07:43:34;;;;;;;;;;;17.70;70.20;;;;;;4446375;32;20030;-82
2022/11/30 07:46:00;;;;;;;;;;;17.70;70.20;;;;;;4446445;32;19981;-81
2022/11/30 07:48:25;;;;;;;;;;;17.70;70.20;;;;;;4446244;32;20044;-80
2022/11/30 07:50:51;;;;;;;;;;;17.70;70.20;;;;;;4446114;32;20109;-80
2022/11/30 07:53:17;;;;;;;;;;;17.70;70.10;;;;;;4445982;32;19995;-79
2022/11/30 07:55:42;;;;;;;;;;;17.70;70.20;;;;;;4446093;32;19970;-77
2022/11/30 07:58:09;;;;;;;;;;;17.70;70.20;;;;;;4446045;32;19994;-81
2022/11/30 08:00:35;;;;;;;;;;;17.60;70.20;;;;;;4432196;32;20380;-81
2022/11/30 08:03:01;;;;;;;;;;;17.60;70.30;;;;;;4445929;32;20304;-81
2022/11/30 08:05:26;;;;;;;;;;;17.60;70.50;;;;;;4445737;32;19967;-81
2022/11/30 08:07:52;;;;;;;;;;;17.60;70.60;;;;;;4446053;32;20419;-81
2022/11/30 08:10:20;;;;;;;;;;;17.60;71.00;;;;;;4445981;32;20023;-80
2022/11/30 08:12:46;;;;;;;;;;;17.60;71.40;;;;;;4446310;32;19993;-80
2022/11/30 08:15:12;;;;;;;;;;;17.70;71.70;;;;;;4446414;32;20096;-80
2022/11/30 08:17:37;;;;;;;;;;;17.80;70.80;;;;;;4446174;32;20113;-80
2022/11/30 08:20:04;;;;;;;;;;;17.90;70.60;;;;;;4446100;32;20277;-80
2022/11/30 08:22:30;;;;;;;;;;;18.00;70.40;;;;;;4445665;32;20126;-79
2022/11/30 08:24:57;;;;;;;;;;;18.10;70.10;;;;;;4446011;32;19987;-79
2022/11/30 08:27:22;;;;;;;;;;;18.20;69.90;;;;;;4432078;32;20020;-80
2022/11/30 08:29:48;;;;;;;;;;;18.30;70.60;;;;;;4445963;32;20344;-80
2022/11/30 08:32:14;;;;;;;;;;;18.40;69.40;;;;;;4445967;32;19982;-80
2022/11/30 08:34:40;;;;;;;;;;;18.60;69.20;;;;;;4446272;32;19967;-79
2022/11/30 08:37:05;;;;;;;;;;;18.70;68.90;;;;;;4446097;32;20301;-79
2022/11/30 08:39:33;;;;;;;;;;;18.80;68.70;;;;;;4431911;32;19978;-79
2022/11/30 08:41:59;;;;;;;;;;;18.90;68.50;;;;;;4445635;32;20022;-79
2022/11/30 08:44:26;;;;;;;;;;;18.90;68.30;;;;;;4446155;32;19989;-81
2022/11/30 08:46:51;;;;;;;;;;;18.90;68.20;;;;;;4445807;32;19975;-80
2022/11/30 08:49:17;;;;;;;;;;;18.90;68.20;;;;;;4445558;32;20013;-81
2022/11/30 08:51:43;;;;;;;;;;;18.90;68.10;;;;;;4445822;32;20025;-81
2022/11/30 08:54:08;;;;;;;;;;;19.00;68.10;;;;;;4445649;32;20157;-79
2022/11/30 08:56:34;;;;;;;;;;;19.00;68.20;;;;;;4445384;32;20052;-81
2022/11/30 08:59:00;;;;;;;;;;;19.00;68.20;;;;;;4445787;32;19971;-80
2022/11/30 09:01:26;;;;;;;;;;;19.00;68.20;;;;;;4445222;32;20096;-80
2022/11/30 09:03:53;;;;;;;;;;;19.00;68.20;;;;;;4431769;32;19974;-79
2022/11/30 09:06:20;;;;;;;;;;;19.00;68.30;;;;;;4445642;32;20446;-80
2022/11/30 09:08:46;;;;;;;;;;;19.00;68.30;;;;;;4445663;32;20308;-80
2022/11/30 09:11:14;;;;;;;;;;;19.00;68.30;;;;;;4431823;32;19982;-79
2022/11/30 09:13:40;;;;;;;;;;;19.00;68.30;;;;;;4445831;32;20175;-79
2022/11/30 09:16:06;;;;;;;;;;;19.00;68.40;;;;;;4445499;32;20100;-79
2022/11/30 09:18:32;;;;;;;;;;;19.00;68.40;;;;;;4445590;32;20444;-73
2022/11/30 09:21:02;;;;;;;;;;;19.00;68.40;;;;;;4443740;32;19963;-79
2022/11/30 09:23:27;;;;;;;;;;;19.00;68.40;;;;;;4445379;32;19974;-79
2022/11/30 09:25:57;;;;;;;;;;;19.00;68.40;;;;;;4445500;32;20088;-79
2022/11/30 09:28:23;;;;;;;;;;;19.00;68.40;;;;;;4446500;32;19989;-79
2022/11/30 09:30:49;;;;;;;;;;;19.00;68.40;;;;;;4447042;32;20036;-79
2022/11/30 09:33:14;;;;;;;;;;;19.10;68.50;;;;;;4448409;32;20305;-79
2022/11/30 09:35:40;;;;;;;;;;;19.00;68.40;;;;;;4448348;32;19962;-79
2022/11/30 09:38:06;;;;;;;;;;;19.10;68.50;;;;;;4448020;32;19982;-79
2022/11/30 09:40:32;;;;;;;;;;;19.10;68.40;;;;;;4448158;32;19998;-78
2022/11/30 09:43:10;;;;;;;;;;;19.10;68.50;;;;;;4447911;32;20432;-79
2022/11/30 09:45:36;;;;;;;;;;;19.10;68.40;;;;;;4434228;32;19979;-79
2022/11/30 09:48:09;;;;;;;;;;;19.10;68.40;;;;;;4447733;32;20420;-78
2022/11/30 09:50:41;;;;;;;;;;;19.10;68.50;;;;;;4447730;32;19974;-79
2022/11/30 09:53:11;;;;;;;;;;;19.10;68.50;;;;;;4447791;32;19990;-78
2022/11/30 09:55:39;;;;;;;;;;;19.10;68.50;;;;;;4433716;32;19979;-81
2022/11/30 09:58:05;;;;;;;;;;;19.10;68.50;;;;;;4447560;32;19978;-78
2022/11/30 10:00:32;;;;;;;;;;;19.10;68.50;;;;;;4447528;32;19959;-79
2022/11/30 10:03:00;;;;;;;;;;;19.10;68.50;;;;;;4446218;32;19986;-80
2022/11/30 10:05:33;;;;;;;;;;;19.10;68.40;;;;;;4447758;32;20005;-80
2022/11/30 10:08:04;;;;;;;;;;;19.20;68.30;;;;;;4447997;32;19986;-79
2022/11/30 10:10:45;;;;;;;;;;;19.20;68.20;;;;;;4433544;32;20104;-78
2022/11/30 10:13:12;;;;;;;;;;;19.30;68.10;;;;;;4447300;32;19978;-74
2022/11/30 10:15:47;;;;;;;;;;;19.30;68.00;;;;;;4447604;32;19977;-80
2022/11/30 10:18:12;;;;;;;;;;;19.40;67.90;;;;;;4447203;32;20056;-82
2022/11/30 10:20:41;;;;;;;;;;;19.40;67.70;;;;;;4447544;32;19975;-81
2022/11/30 10:23:13;;;;;;;;;;;19.50;67.70;;;;;;4447641;32;20327;-80
2022/11/30 10:25:51;;;;;;;;;;;19.50;67.60;;;;;;4447820;32;20136;-80
2022/11/30 10:28:22;;;;;;;;;;;19.50;67.50;;;;;;4447465;32;19982;-80
2022/11/30 10:30:48;;;;;;;;;;;19.50;67.40;;;;;;4447128;32;19990;-80
2022/11/30 10:33:18;;;;;;;;;;;19.50;67.40;;;;;;4433620;32;20056;-80
2022/11/30 10:35:48;;;;;;;;;;;19.50;67.30;;;;;;4447021;32;20049;-80
2022/11/30 10:38:22;;;;;;;;;;;19.50;67.30;;;;;;4447084;32;19982;-78
2022/11/30 10:40:56;;;;;;;;;;;19.60;67.20;;;;;;4446421;32;19978;-80
2022/11/30 10:43:40;;;;;;;;;;;19.50;67.20;;;;;;4447353;32;20084;-77
2022/11/30 10:46:07;;;;;;;;;;;19.60;67.20;;;;;;4447273;32;20112;-80
2022/11/30 10:48:39;;;;;;;;;;;19.60;67.20;;;;;;4446924;32;19982;-80
2022/11/30 10:51:05;;;;;;;;;;;19.60;67.20;;;;;;4447227;32;20049;-78
2022/11/30 10:53:31;;;;;;;;;;;19.60;67.20;;;;;;4447311;32;19978;-78
2022/11/30 10:56:03;;;;;;;;;;;19.60;67.20;;;;;;4447230;32;19982;-78
2022/11/30 10:58:31;;;;;;;;;;;19.60;67.30;;;;;;4446734;32;20018;-79
2022/11/30 11:01:00;;;;;;;;;;;19.60;67.30;;;;;;4446685;32;19985;-78
2022/11/30 11:03:26;;;;;;;;;;;19.60;67.40;;;;;;4446821;32;20040;-79
2022/11/30 11:06:02;;;;;;;;;;;19.60;67.50;;;;;;4447120;32;19979;-79
2022/11/30 11:08:27;;;;;;;;;;;19.60;67.50;;;;;;4446850;32;19984;-78
2022/11/30 11:10:53;;;;;;;;;;;19.60;67.50;;;;;;4432622;32;19978;-79
2022/11/30 11:13:36;;;;;;;;;;;19.50;67.50;;;;;;4446781;32;20017;-79
2022/11/30 11:16:03;;;;;;;;;;;19.60;67.50;;;;;;4446437;32;20097;-77
2022/11/30 11:18:29;;;;;;;;;;;19.60;67.50;;;;;;4446717;32;19990;-81
2022/11/30 11:21:03;;;;;;;;;;;19.60;67.70;;;;;;4446707;32;20043;-77
2022/11/30 11:23:31;;;;;;;;;;;19.50;67.60;;;;;;4447060;32;19978;-79
2022/11/30 11:25:57;;;;;;;;;;;19.50;67.60;;;;;;4432388;32;19978;-79
2022/11/30 11:28:23;;;;;;;;;;;19.60;67.50;;;;;;4446716;32;19962;-79
2022/11/30 11:30:51;;;;;;;;;;;19.60;67.50;;;;;;4446296;32;19967;-80
2022/11/30 11:33:18;;;;;;;;;;;19.60;67.40;;;;;;4446225;32;20025;-79
2022/11/30 11:35:50;;;;;;;;;;;19.60;67.30;;;;;;4446270;32;20061;-79
2022/11/30 11:38:29;;;;;;;;;;;19.60;67.20;;;;;;4446565;32;20428;-78
2022/11/30 11:40:57;;;;;;;;;;;19.70;67.20;;;;;;4446318;32;19980;-79
2022/11/30 11:43:24;;;;;;;;;;;19.70;67.20;;;;;;4446634;32;19979;-80
2022/11/30 11:45:51;;;;;;;;;;;19.70;67.20;;;;;;4446299;32;20077;-78
2022/11/30 11:48:37;;;;;;;;;;;19.70;67.20;;;;;;4446278;32;19978;-78
2022/11/30 11:51:07;;;;;;;;;;;19.70;67.20;;;;;;4446368;32;20563;-79
2022/11/30 11:53:53;;;;;;;;;;;19.70;67.20;;;;;;4446431;32;19978;-79
2022/11/30 11:56:30;;;;;;;;;;;19.70;67.30;;;;;;4446512;32;20124;-80
2022/11/30 11:58:59;;;;;;;;;;;19.70;67.20;;;;;;4445952;32;19985;-79
2022/11/30 12:01:37;;;;;;;;;;;19.70;67.20;;;;;;4446190;32;19989;-79
2022/11/30 12:04:22;;;;;;;;;;;19.70;67.20;;;;;;4445949;32;19978;-79
2022/11/30 12:06:50;;;;;;;;;;;19.70;67.20;;;;;;4446123;32;19971;-79
2022/11/30 12:09:20;;;;;;;;;;;19.70;67.20;;;;;;4446005;32;19986;-79
2022/11/30 12:11:47;;;;;;;;;;;19.70;67.20;;;;;;4446213;32;19993;-75
2022/11/30 12:14:16;;;;;;;;;;;19.70;67.30;;;;;;4445999;32;19978;-79
2022/11/30 12:16:53;;;;;;;;;;;19.70;67.30;;;;;;4445849;32;19974;-78
2022/11/30 12:19:37;;;;;;;;;;;19.70;67.30;;;;;;4446264;32;19970;-80
2022/11/30 12:22:18;;;;;;;;;;;19.70;67.30;;;;;;4445855;32;20057;-81
2022/11/30 12:24:56;;;;;;;;;;;19.70;67.20;;;;;;4445631;32;19978;-81
2022/11/30 12:27:41;;;;;;;;;;;19.70;67.30;;;;;;4445839;32;19978;-81
2022/11/30 12:30:14;;;;;;;;;;;19.70;67.30;;;;;;4445642;32;19966;-82
2022/11/30 12:33:05;;;;;;;;;;;19.70;67.20;;;;;;4445741;32;20452;-81
2022/11/30 12:35:45;;;;;;;;;;;19.70;67.20;;;;;;4445931;32;19966;-82
2022/11/30 12:38:17;;;;;;;;;;;19.70;67.30;;;;;;4446240;32;19978;-81
2022/11/30 12:41:01;;;;;;;;;;;19.70;67.30;;;;;;4446033;32;19971;-80
2022/11/30 12:43:33;;;;;;;;;;;19.70;67.30;;;;;;4445708;32;20166;-79
2022/11/30 12:46:04;;;;;;;;;;;19.70;67.30;;;;;;4445653;32;19997;-80
2022/11/30 12:48:37;;;;;;;;;;;19.70;67.30;;;;;;4445137;32;20081;-79
2022/11/30 12:51:23;;;;;;;;;;;19.70;67.40;;;;;;4445765;32;20108;-80
2022/11/30 12:54:07;;;;;;;;;;;19.70;67.40;;;;;;4420686;32;19975;-82
2022/11/30 12:56:48;;;;;;;;;;;19.70;67.40;;;;;;4445242;32;20005;-83
2022/11/30 12:59:29;;;;;;;;;;;19.70;68.20;;;;;;4445290;32;20011;-80
2022/11/30 13:02:02;;;;;;;;;;;19.70;67.40;;;;;;4445468;32;19993;-80
2022/11/30 13:04:31;;;;;;;;;;;19.70;67.40;;;;;;4447770;32;19986;-81
2022/11/30 13:07:03;;;;;;;;;;;19.70;67.50;;;;;;4448634;32;19975;-81
2022/11/30 13:09:35;;;;;;;;;;;19.70;67.50;;;;;;4448609;32;19982;-79
2022/11/30 13:12:21;;;;;;;;;;;19.70;67.60;;;;;;4434637;32;19979;-78
2022/11/30 13:14:47;;;;;;;;;;;19.70;67.60;;;;;;4439709;32;19993;-78
2022/11/30 13:17:16;;;;;;;;;;;19.70;67.70;;;;;;4448462;32;19978;-78
2022/11/30 13:19:51;;;;;;;;;;;19.70;68.50;;;;;;4448713;32;19978;-78
2022/11/30 13:22:35;;;;;;;;;;;19.70;67.70;;;;;;4448434;32;20427;-77
2022/11/30 13:25:15;;;;;;;;;;;19.70;67.70;;;;;;4448239;32;20116;-77
2022/11/30 13:27:48;;;;;;;;;;;19.70;67.90;;;;;;4448421;32;19986;-77
2022/11/30 13:30:17;;;;;;;;;;;19.70;67.90;;;;;;4448167;32;19993;-78
2022/11/30 13:32:42;;;;;;;;;;;19.70;68.80;;;;;;4448427;32;19994;-77
2022/11/30 13:35:26;;;;;;;;;;;19.70;68.00;;;;;;4447870;32;20033;-79
2022/11/30 13:38:04;;;;;;;;;;;19.70;68.00;;;;;;4447868;32;20084;-77
2022/11/30 13:40:30;;;;;;;;;;;19.70;68.00;;;;;;4448154;32;20058;-77
2022/11/30 13:42:56;;;;;;;;;;;19.80;68.00;;;;;;4448036;32;20100;-78
2022/11/30 13:45:27;;;;;;;;;;;19.80;68.10;;;;;;4448149;32;20002;-78
2022/11/30 13:47:54;;;;;;;;;;;19.70;68.10;;;;;;4448422;32;19979;-78
2022/11/30 13:50:40;;;;;;;;;;;19.70;68.10;;;;;;4448411;32;20429;-77
2022/11/30 13:53:08;;;;;;;;;;;19.70;68.10;;;;;;4447873;32;20399;-79
2022/11/30 13:55:40;;;;;;;;;;;19.70;68.10;;;;;;4448168;32;20522;-78
2022/11/30 13:58:07;;;;;;;;;;;19.70;68.10;;;;;;4448111;32;19989;-77
2022/11/30 14:00:33;;;;;;;;;;;19.70;68.10;;;;;;4448019;32;20081;-80
2022/11/30 14:03:18;;;;;;;;;;;19.70;68.10;;;;;;4447426;32;19994;-77
2022/11/30 14:05:45;;;;;;;;;;;19.70;68.10;;;;;;4447745;32;19975;-78
2022/11/30 14:08:15;;;;;;;;;;;19.70;68.10;;;;;;4448088;32;19990;-77
2022/11/30 14:10:45;;;;;;;;;;;19.70;68.10;;;;;;4448325;32;20029;-78
2022/11/30 14:13:12;;;;;;;;;;;19.70;68.10;;;;;;4446602;32;20116;-78
2022/11/30 14:15:37;;;;;;;;;;;19.70;68.10;;;;;;4447663;32;20051;-78
2022/11/30 14:18:06;;;;;;;;;;;19.70;68.20;;;;;;4447667;32;19975;-78
2022/11/30 14:20:34;;;;;;;;;;;19.70;68.20;;;;;;4433608;32;20039;-78
2022/11/30 14:23:05;;;;;;;;;;;19.70;68.20;;;;;;4447859;32;20105;-79
2022/11/30 14:25:32;;;;;;;;;;;19.70;68.30;;;;;;4447658;32;20589;-78